sensor_id;sensor_type;location;lat;lon;timestamp;P1;durP1;ratioP1;P2;durP2;ratioP2
22705;SDS011;11520;51.198;4.468;2022-12-07T00:01:20;20.42;;;9.52;;
22705;SDS011;11520;51.198;4.468;2022-12-07T00:03:49;14.38;;;7.93;;
22705;SDS011;11520;51.198;4.468;2022-12-07T00:06:17;13.77;;;8.00;;
22705;SDS011;11520;51.198;4.468;2022-12-07T00:08:44;14.27;;;8.05;;
22705;SDS011;11520;51.198;4.468;2022-12-07T00:11:11;17.95;;;9.02;;
22705;SDS011;11520;51.198;4.468;2022-12-07T00:13:38;17.20;;;8.55;;
22705;SDS011;11520;51.198;4.468;2022-12-07T00:16:06;17.95;;;9.10;;
22705;SDS011;11520;51.198;4.468;2022-12-07T00:18:33;23.48;;;9.65;;
22705;SDS011;11520;51.198;4.468;2022-12-07T00:21:03;15.75;;;9.23;;
22705;SDS011;11520;51.198;4.468;2022-12-07T00:23:30;18.83;;;10.25;;
22705;SDS011;11520;51.198;4.468;2022-12-07T00:26:02;16.40;;;9.43;;
22705;SDS011;11520;51.198;4.468;2022-12-07T00:28:28;20.90;;;10.18;;
22705;SDS011;11520;51.198;4.468;2022-12-07T00:30:59;19.33;;;10.13;;
22705;SDS011;11520;51.198;4.468;2022-12-07T00:33:29;17.67;;;9.48;;
22705;SDS011;11520;51.198;4.468;2022-12-07T00:35:55;18.58;;;9.68;;
22705;SDS011;11520;51.198;4.468;2022-12-07T00:38:23;14.95;;;9.23;;
22705;SDS011;11520;51.198;4.468;2022-12-07T00:40:58;15.38;;;9.93;;
22705;SDS011;11520;51.198;4.468;2022-12-07T00:43:26;17.25;;;9.13;;
22705;SDS011;11520;51.198;4.468;2022-12-07T00:45:52;14.05;;;9.27;;
22705;SDS011;11520;51.198;4.468;2022-12-07T00:48:20;15.68;;;9.27;;
22705;SDS011;11520;51.198;4.468;2022-12-07T00:50:45;15.63;;;9.25;;
22705;SDS011;11520;51.198;4.468;2022-12-07T00:53:12;19.30;;;10.30;;
22705;SDS011;11520;51.198;4.468;2022-12-07T00:55:39;15.73;;;9.60;;
22705;SDS011;11520;51.198;4.468;2022-12-07T00:58:05;16.55;;;10.48;;
22705;SDS011;11520;51.198;4.468;2022-12-07T01:00:34;20.48;;;9.85;;
22705;SDS011;11520;51.198;4.468;2022-12-07T01:03:01;18.80;;;10.07;;
22705;SDS011;11520;51.198;4.468;2022-12-07T01:05:27;18.15;;;9.57;;
22705;SDS011;11520;51.198;4.468;2022-12-07T01:07:52;14.60;;;8.63;;
22705;SDS011;11520;51.198;4.468;2022-12-07T01:10:19;14.98;;;9.07;;
22705;SDS011;11520;51.198;4.468;2022-12-07T01:12:45;17.70;;;8.60;;
22705;SDS011;11520;51.198;4.468;2022-12-07T01:15:10;18.90;;;8.85;;
22705;SDS011;11520;51.198;4.468;2022-12-07T01:17:36;12.63;;;7.85;;
22705;SDS011;11520;51.198;4.468;2022-12-07T01:20:04;13.70;;;8.02;;
22705;SDS011;11520;51.198;4.468;2022-12-07T01:22:36;16.27;;;8.40;;
22705;SDS011;11520;51.198;4.468;2022-12-07T01:25:08;13.93;;;9.02;;
22705;SDS011;11520;51.198;4.468;2022-12-07T01:27:36;15.50;;;9.07;;
22705;SDS011;11520;51.198;4.468;2022-12-07T01:30:02;12.00;;;8.23;;
22705;SDS011;11520;51.198;4.468;2022-12-07T01:32:31;12.95;;;7.85;;
22705;SDS011;11520;51.198;4.468;2022-12-07T01:34:57;15.15;;;8.60;;
22705;SDS011;11520;51.198;4.468;2022-12-07T01:37:23;14.73;;;8.77;;
22705;SDS011;11520;51.198;4.468;2022-12-07T01:39:51;19.05;;;9.73;;
22705;SDS011;11520;51.198;4.468;2022-12-07T01:42:17;16.48;;;8.75;;
22705;SDS011;11520;51.198;4.468;2022-12-07T01:47:46;16.15;;;9.88;;
22705;SDS011;11520;51.198;4.468;2022-12-07T01:50:16;14.63;;;9.45;;
22705;SDS011;11520;51.198;4.468;2022-12-07T01:52:45;18.90;;;9.73;;
22705;SDS011;11520;51.198;4.468;2022-12-07T01:55:16;17.05;;;8.98;;
22705;SDS011;11520;51.198;4.468;2022-12-07T01:57:44;16.73;;;9.30;;
22705;SDS011;11520;51.198;4.468;2022-12-07T02:00:13;15.07;;;7.90;;
22705;SDS011;11520;51.198;4.468;2022-12-07T02:03:03;16.17;;;9.40;;
22705;SDS011;11520;51.198;4.468;2022-12-07T02:05:31;15.93;;;8.63;;
22705;SDS011;11520;51.198;4.468;2022-12-07T02:08:00;14.93;;;8.98;;
22705;SDS011;11520;51.198;4.468;2022-12-07T02:10:34;16.50;;;9.20;;
22705;SDS011;11520;51.198;4.468;2022-12-07T02:13:11;20.67;;;9.15;;
22705;SDS011;11520;51.198;4.468;2022-12-07T02:21:07;16.70;;;10.15;;
22705;SDS011;11520;51.198;4.468;2022-12-07T02:29:35;13.05;;;8.85;;
22705;SDS011;11520;51.198;4.468;2022-12-07T02:32:24;15.38;;;8.85;;
22705;SDS011;11520;51.198;4.468;2022-12-07T02:35:05;17.77;;;8.55;;
22705;SDS011;11520;51.198;4.468;2022-12-07T02:37:49;14.90;;;8.65;;
22705;SDS011;11520;51.198;4.468;2022-12-07T02:40:38;13.65;;;8.52;;
22705;SDS011;11520;51.198;4.468;2022-12-07T02:45:51;16.23;;;8.35;;
22705;SDS011;11520;51.198;4.468;2022-12-07T02:48:19;16.45;;;7.47;;
22705;SDS011;11520;51.198;4.468;2022-12-07T02:50:50;14.55;;;8.02;;
22705;SDS011;11520;51.198;4.468;2022-12-07T02:53:37;18.90;;;8.20;;
22705;SDS011;11520;51.198;4.468;2022-12-07T02:56:07;13.63;;;8.05;;
22705;SDS011;11520;51.198;4.468;2022-12-07T03:16:23;12.40;;;5.90;;
22705;SDS011;11520;51.198;4.468;2022-12-07T03:21:42;13.35;;;6.22;;
22705;SDS011;11520;51.198;4.468;2022-12-07T03:24:13;10.70;;;5.85;;
22705;SDS011;11520;51.198;4.468;2022-12-07T03:26:45;11.25;;;5.85;;
22705;SDS011;11520;51.198;4.468;2022-12-07T03:29:17;11.85;;;6.28;;
22705;SDS011;11520;51.198;4.468;2022-12-07T03:34:41;11.40;;;7.28;;
22705;SDS011;11520;51.198;4.468;2022-12-07T03:37:34;16.27;;;5.93;;
22705;SDS011;11520;51.198;4.468;2022-12-07T03:42:59;9.55;;;5.82;;
22705;SDS011;11520;51.198;4.468;2022-12-07T03:45:31;13.77;;;6.47;;
22705;SDS011;11520;51.198;4.468;2022-12-07T03:50:49;12.75;;;6.65;;
22705;SDS011;11520;51.198;4.468;2022-12-07T03:53:22;13.43;;;6.90;;
22705;SDS011;11520;51.198;4.468;2022-12-07T03:55:56;13.85;;;6.50;;
22705;SDS011;11520;51.198;4.468;2022-12-07T03:58:23;12.85;;;6.88;;
22705;SDS011;11520;51.198;4.468;2022-12-07T04:00:50;9.32;;;4.70;;
22705;SDS011;11520;51.198;4.468;2022-12-07T04:03:16;10.32;;;5.63;;
22705;SDS011;11520;51.198;4.468;2022-12-07T04:05:42;11.85;;;5.53;;
22705;SDS011;11520;51.198;4.468;2022-12-07T04:08:08;9.93;;;5.15;;
22705;SDS011;11520;51.198;4.468;2022-12-07T04:10:34;13.45;;;6.10;;
22705;SDS011;11520;51.198;4.468;2022-12-07T04:13:01;12.18;;;6.00;;
22705;SDS011;11520;51.198;4.468;2022-12-07T04:15:26;13.63;;;6.00;;
22705;SDS011;11520;51.198;4.468;2022-12-07T04:17:52;8.30;;;5.40;;
22705;SDS011;11520;51.198;4.468;2022-12-07T04:20:19;8.48;;;5.53;;
22705;SDS011;11520;51.198;4.468;2022-12-07T04:22:46;12.38;;;5.75;;
22705;SDS011;11520;51.198;4.468;2022-12-07T04:25:11;14.85;;;6.40;;
22705;SDS011;11520;51.198;4.468;2022-12-07T04:27:37;18.55;;;5.40;;
22705;SDS011;11520;51.198;4.468;2022-12-07T04:30:04;14.07;;;5.25;;
22705;SDS011;11520;51.198;4.468;2022-12-07T04:32:31;7.72;;;4.57;;
22705;SDS011;11520;51.198;4.468;2022-12-07T04:34:57;12.00;;;4.80;;
22705;SDS011;11520;51.198;4.468;2022-12-07T04:37:23;9.13;;;4.68;;
22705;SDS011;11520;51.198;4.468;2022-12-07T04:39:48;9.82;;;5.13;;
22705;SDS011;11520;51.198;4.468;2022-12-07T04:42:20;11.48;;;4.50;;
22705;SDS011;11520;51.198;4.468;2022-12-07T04:44:46;9.50;;;4.70;;
22705;SDS011;11520;51.198;4.468;2022-12-07T04:47:12;11.88;;;5.45;;
22705;SDS011;11520;51.198;4.468;2022-12-07T04:49:39;10.25;;;4.88;;
22705;SDS011;11520;51.198;4.468;2022-12-07T04:52:06;11.32;;;4.45;;
22705;SDS011;11520;51.198;4.468;2022-12-07T04:54:33;9.52;;;3.97;;
22705;SDS011;11520;51.198;4.468;2022-12-07T04:56:59;9.18;;;4.28;;
22705;SDS011;11520;51.198;4.468;2022-12-07T04:59:25;17.83;;;5.65;;
22705;SDS011;11520;51.198;4.468;2022-12-07T05:01:51;10.88;;;4.80;;
22705;SDS011;11520;51.198;4.468;2022-12-07T05:04:16;11.68;;;4.22;;
22705;SDS011;11520;51.198;4.468;2022-12-07T05:06:43;8.70;;;4.53;;
22705;SDS011;11520;51.198;4.468;2022-12-07T05:09:10;12.73;;;4.25;;
22705;SDS011;11520;51.198;4.468;2022-12-07T05:11:35;9.07;;;4.10;;
22705;SDS011;11520;51.198;4.468;2022-12-07T05:14:06;9.70;;;4.03;;
22705;SDS011;11520;51.198;4.468;2022-12-07T05:16:43;9.93;;;4.15;;
22705;SDS011;11520;51.198;4.468;2022-12-07T05:19:10;10.23;;;3.88;;
22705;SDS011;11520;51.198;4.468;2022-12-07T05:21:42;7.32;;;3.60;;
22705;SDS011;11520;51.198;4.468;2022-12-07T05:24:09;10.60;;;4.47;;
22705;SDS011;11520;51.198;4.468;2022-12-07T05:26:36;10.88;;;4.30;;
22705;SDS011;11520;51.198;4.468;2022-12-07T05:31:34;9.82;;;4.22;;
22705;SDS011;11520;51.198;4.468;2022-12-07T05:34:00;10.10;;;4.80;;
22705;SDS011;11520;51.198;4.468;2022-12-07T05:36:25;9.57;;;4.95;;
22705;SDS011;11520;51.198;4.468;2022-12-07T05:38:53;10.13;;;5.20;;
22705;SDS011;11520;51.198;4.468;2022-12-07T05:41:19;12.07;;;4.93;;
22705;SDS011;11520;51.198;4.468;2022-12-07T05:44:03;13.55;;;5.78;;
22705;SDS011;11520;51.198;4.468;2022-12-07T05:46:30;12.77;;;5.28;;
22705;SDS011;11520;51.198;4.468;2022-12-07T05:48:56;9.45;;;5.35;;
22705;SDS011;11520;51.198;4.468;2022-12-07T05:51:21;15.63;;;4.75;;
22705;SDS011;11520;51.198;4.468;2022-12-07T05:53:47;11.32;;;4.95;;
22705;SDS011;11520;51.198;4.468;2022-12-07T05:56:13;9.85;;;4.68;;
22705;SDS011;11520;51.198;4.468;2022-12-07T05:58:40;13.63;;;5.78;;
22705;SDS011;11520;51.198;4.468;2022-12-07T06:01:24;8.73;;;4.80;;
22705;SDS011;11520;51.198;4.468;2022-12-07T06:03:50;10.23;;;4.57;;
22705;SDS011;11520;51.198;4.468;2022-12-07T06:06:16;10.70;;;4.53;;
22705;SDS011;11520;51.198;4.468;2022-12-07T06:08:44;9.73;;;4.60;;
22705;SDS011;11520;51.198;4.468;2022-12-07T06:11:09;11.98;;;4.72;;
22705;SDS011;11520;51.198;4.468;2022-12-07T06:13:53;11.15;;;4.70;;
22705;SDS011;11520;51.198;4.468;2022-12-07T06:16:19;9.13;;;4.88;;
22705;SDS011;11520;51.198;4.468;2022-12-07T06:18:45;10.27;;;4.47;;
22705;SDS011;11520;51.198;4.468;2022-12-07T06:21:10;10.90;;;4.63;;
22705;SDS011;11520;51.198;4.468;2022-12-07T06:23:37;9.45;;;4.50;;
22705;SDS011;11520;51.198;4.468;2022-12-07T06:26:03;13.38;;;4.45;;
22705;SDS011;11520;51.198;4.468;2022-12-07T06:28:28;8.38;;;3.83;;
22705;SDS011;11520;51.198;4.468;2022-12-07T06:31:00;13.40;;;3.38;;
22705;SDS011;11520;51.198;4.468;2022-12-07T06:33:27;10.75;;;3.40;;
22705;SDS011;11520;51.198;4.468;2022-12-07T06:35:53;9.18;;;3.17;;
22705;SDS011;11520;51.198;4.468;2022-12-07T06:38:19;12.68;;;4.85;;
22705;SDS011;11520;51.198;4.468;2022-12-07T06:40:46;10.18;;;4.40;;
22705;SDS011;11520;51.198;4.468;2022-12-07T06:43:13;8.13;;;3.75;;
22705;SDS011;11520;51.198;4.468;2022-12-07T06:45:40;14.57;;;4.35;;
22705;SDS011;11520;51.198;4.468;2022-12-07T06:48:06;7.18;;;3.60;;
22705;SDS011;11520;51.198;4.468;2022-12-07T06:50:31;12.68;;;4.47;;
22705;SDS011;11520;51.198;4.468;2022-12-07T06:52:57;9.65;;;4.10;;
22705;SDS011;11520;51.198;4.468;2022-12-07T06:55:22;13.13;;;3.75;;
22705;SDS011;11520;51.198;4.468;2022-12-07T06:57:48;11.52;;;3.95;;
22705;SDS011;11520;51.198;4.468;2022-12-07T07:00:14;11.52;;;4.00;;
22705;SDS011;11520;51.198;4.468;2022-12-07T07:02:41;8.82;;;3.78;;
22705;SDS011;11520;51.198;4.468;2022-12-07T07:05:07;8.13;;;3.60;;
22705;SDS011;11520;51.198;4.468;2022-12-07T07:07:33;12.60;;;4.40;;
22705;SDS011;11520;51.198;4.468;2022-12-07T07:09:58;11.38;;;3.95;;
22705;SDS011;11520;51.198;4.468;2022-12-07T07:12:25;8.07;;;3.83;;
22705;SDS011;11520;51.198;4.468;2022-12-07T07:14:50;10.68;;;3.55;;
22705;SDS011;11520;51.198;4.468;2022-12-07T07:17:16;10.23;;;3.72;;
22705;SDS011;11520;51.198;4.468;2022-12-07T07:19:42;8.25;;;3.50;;
22705;SDS011;11520;51.198;4.468;2022-12-07T07:22:07;15.10;;;4.28;;
22705;SDS011;11520;51.198;4.468;2022-12-07T07:24:34;11.65;;;4.25;;
22705;SDS011;11520;51.198;4.468;2022-12-07T07:27:01;12.48;;;4.70;;
22705;SDS011;11520;51.198;4.468;2022-12-07T07:29:26;16.85;;;5.75;;
22705;SDS011;11520;51.198;4.468;2022-12-07T07:31:53;14.30;;;5.13;;
22705;SDS011;11520;51.198;4.468;2022-12-07T07:34:19;18.10;;;5.60;;
22705;SDS011;11520;51.198;4.468;2022-12-07T07:36:44;14.88;;;5.45;;
22705;SDS011;11520;51.198;4.468;2022-12-07T07:39:13;15.50;;;5.93;;
22705;SDS011;11520;51.198;4.468;2022-12-07T07:44:12;21.70;;;6.30;;
22705;SDS011;11520;51.198;4.468;2022-12-07T07:46:39;18.05;;;6.25;;
22705;SDS011;11520;51.198;4.468;2022-12-07T07:49:08;18.83;;;6.72;;
22705;SDS011;11520;51.198;4.468;2022-12-07T07:51:35;20.98;;;6.55;;
22705;SDS011;11520;51.198;4.468;2022-12-07T07:54:01;17.08;;;6.95;;
22705;SDS011;11520;51.198;4.468;2022-12-07T07:56:28;12.70;;;6.25;;
22705;SDS011;11520;51.198;4.468;2022-12-07T07:58:54;20.95;;;7.72;;
22705;SDS011;11520;51.198;4.468;2022-12-07T08:01:20;18.67;;;6.93;;
22705;SDS011;11520;51.198;4.468;2022-12-07T08:03:46;19.48;;;7.57;;
22705;SDS011;11520;51.198;4.468;2022-12-07T08:06:14;20.50;;;7.95;;
22705;SDS011;11520;51.198;4.468;2022-12-07T08:08:39;22.20;;;7.55;;
22705;SDS011;11520;51.198;4.468;2022-12-07T08:11:06;16.05;;;7.30;;
22705;SDS011;11520;51.198;4.468;2022-12-07T08:13:33;18.40;;;7.60;;
22705;SDS011;11520;51.198;4.468;2022-12-07T08:15:59;20.55;;;7.03;;
22705;SDS011;11520;51.198;4.468;2022-12-07T08:18:30;19.25;;;6.90;;
22705;SDS011;11520;51.198;4.468;2022-12-07T08:20:59;15.73;;;6.72;;
22705;SDS011;11520;51.198;4.468;2022-12-07T08:23:28;18.20;;;7.50;;
22705;SDS011;11520;51.198;4.468;2022-12-07T08:25:54;13.23;;;6.30;;
22705;SDS011;11520;51.198;4.468;2022-12-07T08:28:24;15.57;;;6.75;;
22705;SDS011;11520;51.198;4.468;2022-12-07T08:30:50;12.10;;;6.03;;
22705;SDS011;11520;51.198;4.468;2022-12-07T08:33:16;11.95;;;4.93;;
22705;SDS011;11520;51.198;4.468;2022-12-07T08:35:42;15.35;;;5.60;;
22705;SDS011;11520;51.198;4.468;2022-12-07T08:38:07;12.55;;;5.22;;
22705;SDS011;11520;51.198;4.468;2022-12-07T08:40:34;10.70;;;5.25;;
22705;SDS011;11520;51.198;4.468;2022-12-07T08:43:00;22.70;;;5.20;;
22705;SDS011;11520;51.198;4.468;2022-12-07T08:45:26;14.98;;;5.00;;
22705;SDS011;11520;51.198;4.468;2022-12-07T08:50:20;13.18;;;4.60;;
22705;SDS011;11520;51.198;4.468;2022-12-07T08:52:50;16.42;;;5.32;;
22705;SDS011;11520;51.198;4.468;2022-12-07T08:55:18;11.70;;;4.65;;
22705;SDS011;11520;51.198;4.468;2022-12-07T08:57:44;11.88;;;4.60;;
22705;SDS011;11520;51.198;4.468;2022-12-07T09:00:11;12.75;;;4.85;;
22705;SDS011;11520;51.198;4.468;2022-12-07T09:02:40;13.15;;;5.00;;
22705;SDS011;11520;51.198;4.468;2022-12-07T09:05:06;10.60;;;4.60;;
22705;SDS011;11520;51.198;4.468;2022-12-07T09:07:33;10.80;;;4.47;;
22705;SDS011;11520;51.198;4.468;2022-12-07T09:09:59;12.90;;;3.97;;
22705;SDS011;11520;51.198;4.468;2022-12-07T09:12:24;11.93;;;4.68;;
22705;SDS011;11520;51.198;4.468;2022-12-07T09:14:50;11.35;;;4.18;;
22705;SDS011;11520;51.198;4.468;2022-12-07T09:17:16;19.83;;;5.32;;
22705;SDS011;11520;51.198;4.468;2022-12-07T09:19:42;15.55;;;3.83;;
22705;SDS011;11520;51.198;4.468;2022-12-07T09:22:08;10.65;;;4.00;;
22705;SDS011;11520;51.198;4.468;2022-12-07T09:24:34;10.30;;;3.88;;
22705;SDS011;11520;51.198;4.468;2022-12-07T09:26:59;15.32;;;4.57;;
22705;SDS011;11520;51.198;4.468;2022-12-07T09:29:25;8.93;;;4.07;;
22705;SDS011;11520;51.198;4.468;2022-12-07T09:31:52;14.52;;;4.60;;
22705;SDS011;11520;51.198;4.468;2022-12-07T09:34:18;13.45;;;5.07;;
22705;SDS011;11520;51.198;4.468;2022-12-07T09:36:43;8.57;;;4.40;;
22705;SDS011;11520;51.198;4.468;2022-12-07T09:39:09;10.80;;;4.10;;
22705;SDS011;11520;51.198;4.468;2022-12-07T09:41:39;13.25;;;4.68;;
22705;SDS011;11520;51.198;4.468;2022-12-07T09:44:13;12.25;;;4.15;;
22705;SDS011;11520;51.198;4.468;2022-12-07T09:46:46;11.65;;;3.83;;
22705;SDS011;11520;51.198;4.468;2022-12-07T09:49:13;7.80;;;3.22;;
22705;SDS011;11520;51.198;4.468;2022-12-07T09:51:45;7.53;;;3.25;;
22705;SDS011;11520;51.198;4.468;2022-12-07T09:54:12;11.18;;;3.63;;
22705;SDS011;11520;51.198;4.468;2022-12-07T09:56:40;11.98;;;3.38;;
22705;SDS011;11520;51.198;4.468;2022-12-07T09:59:10;7.25;;;2.72;;
22705;SDS011;11520;51.198;4.468;2022-12-07T10:01:40;8.82;;;2.50;;
22705;SDS011;11520;51.198;4.468;2022-12-07T10:04:14;11.05;;;3.55;;
22705;SDS011;11520;51.198;4.468;2022-12-07T10:06:50;8.85;;;2.90;;
22705;SDS011;11520;51.198;4.468;2022-12-07T10:09:17;10.02;;;3.05;;
22705;SDS011;11520;51.198;4.468;2022-12-07T10:14:35;10.60;;;3.05;;
22705;SDS011;11520;51.198;4.468;2022-12-07T10:17:25;9.88;;;3.33;;
22705;SDS011;11520;51.198;4.468;2022-12-07T10:25:22;11.35;;;3.55;;
22705;SDS011;11520;51.198;4.468;2022-12-07T10:28:01;8.73;;;3.30;;
22705;SDS011;11520;51.198;4.468;2022-12-07T10:33:32;10.77;;;4.47;;
22705;SDS011;11520;51.198;4.468;2022-12-07T10:35:59;9.45;;;3.25;;
22705;SDS011;11520;51.198;4.468;2022-12-07T10:38:35;11.20;;;3.83;;
22705;SDS011;11520;51.198;4.468;2022-12-07T10:41:10;9.60;;;3.75;;
22705;SDS011;11520;51.198;4.468;2022-12-07T10:43:36;9.65;;;3.55;;
22705;SDS011;11520;51.198;4.468;2022-12-07T10:46:13;11.55;;;3.95;;
22705;SDS011;11520;51.198;4.468;2022-12-07T10:54:34;7.85;;;3.45;;
22705;SDS011;11520;51.198;4.468;2022-12-07T11:00:21;9.55;;;4.05;;
22705;SDS011;11520;51.198;4.468;2022-12-07T11:05:45;8.57;;;3.40;;
22705;SDS011;11520;51.198;4.468;2022-12-07T11:13:51;14.75;;;4.63;;
22705;SDS011;11520;51.198;4.468;2022-12-07T11:19:27;11.63;;;3.78;;
22705;SDS011;11520;51.198;4.468;2022-12-07T11:21:57;9.10;;;3.90;;
22705;SDS011;11520;51.198;4.468;2022-12-07T11:27:27;9.85;;;3.80;;
22705;SDS011;11520;51.198;4.468;2022-12-07T11:38:00;8.63;;;4.30;;
22705;SDS011;11520;51.198;4.468;2022-12-07T11:40:34;8.50;;;3.75;;
22705;SDS011;11520;51.198;4.468;2022-12-07T11:46:00;12.13;;;3.30;;
22705;SDS011;11520;51.198;4.468;2022-12-07T11:48:50;10.77;;;3.70;;
22705;SDS011;11520;51.198;4.468;2022-12-07T11:51:29;13.85;;;3.70;;
22705;SDS011;11520;51.198;4.468;2022-12-07T11:54:02;7.95;;;3.13;;
22705;SDS011;11520;51.198;4.468;2022-12-07T11:56:36;5.25;;;2.45;;
22705;SDS011;11520;51.198;4.468;2022-12-07T11:59:07;8.30;;;2.03;;
22705;SDS011;11520;51.198;4.468;2022-12-07T12:01:53;6.35;;;2.10;;
22705;SDS011;11520;51.198;4.468;2022-12-07T12:07:17;10.68;;;2.72;;
22705;SDS011;11520;51.198;4.468;2022-12-07T12:12:47;5.45;;;1.85;;
22705;SDS011;11520;51.198;4.468;2022-12-07T12:20:55;6.20;;;1.80;;
22705;SDS011;11520;51.198;4.468;2022-12-07T12:23:44;4.27;;;1.87;;
22705;SDS011;11520;51.198;4.468;2022-12-07T12:26:25;6.53;;;1.80;;
22705;SDS011;11520;51.198;4.468;2022-12-07T12:29:03;11.05;;;2.33;;
22705;SDS011;11520;51.198;4.468;2022-12-07T12:31:43;2.50;;;1.50;;
22705;SDS011;11520;51.198;4.468;2022-12-07T12:42:44;5.90;;;1.85;;
22705;SDS011;11520;51.198;4.468;2022-12-07T12:45:22;3.75;;;1.40;;
22705;SDS011;11520;51.198;4.468;2022-12-07T12:47:53;4.40;;;1.38;;
22705;SDS011;11520;51.198;4.468;2022-12-07T12:50:26;2.35;;;1.17;;
22705;SDS011;11520;51.198;4.468;2022-12-07T12:53:25;4.70;;;1.27;;
22705;SDS011;11520;51.198;4.468;2022-12-07T12:56:22;4.55;;;1.63;;
22705;SDS011;11520;51.198;4.468;2022-12-07T13:01:55;8.45;;;1.13;;
22705;SDS011;11520;51.198;4.468;2022-12-07T13:10:35;5.47;;;1.13;;
22705;SDS011;11520;51.198;4.468;2022-12-07T13:18:38;7.22;;;1.95;;
22705;SDS011;11520;51.198;4.468;2022-12-07T13:23:37;6.45;;;1.75;;
22705;SDS011;11520;51.198;4.468;2022-12-07T13:26:15;7.07;;;1.95;;
22705;SDS011;11520;51.198;4.468;2022-12-07T13:36:55;6.78;;;2.25;;
22705;SDS011;11520;51.198;4.468;2022-12-07T13:39:25;6.30;;;2.15;;
22705;SDS011;11520;51.198;4.468;2022-12-07T13:41:56;8.93;;;2.30;;
22705;SDS011;11520;51.198;4.468;2022-12-07T13:47:06;3.08;;;1.52;;
22705;SDS011;11520;51.198;4.468;2022-12-07T13:49:49;3.95;;;1.88;;
22705;SDS011;11520;51.198;4.468;2022-12-07T13:52:25;3.70;;;1.80;;
22705;SDS011;11520;51.198;4.468;2022-12-07T13:55:11;3.35;;;1.88;;
22705;SDS011;11520;51.198;4.468;2022-12-07T13:57:40;4.10;;;2.05;;
22705;SDS011;11520;51.198;4.468;2022-12-07T14:00:16;2.67;;;1.40;;
22705;SDS011;11520;51.198;4.468;2022-12-07T14:03:25;2.45;;;1.70;;
22705;SDS011;11520;51.198;4.468;2022-12-07T14:05:44;3.05;;;1.50;;
22705;SDS011;11520;51.198;4.468;2022-12-07T14:10:40;6.68;;;1.58;;
22705;SDS011;11520;51.198;4.468;2022-12-07T14:18:56;4.65;;;0.80;;
22705;SDS011;11520;51.198;4.468;2022-12-07T14:21:33;4.05;;;1.00;;
22705;SDS011;11520;51.198;4.468;2022-12-07T14:24:10;3.55;;;1.55;;
22705;SDS011;11520;51.198;4.468;2022-12-07T14:26:42;5.18;;;1.30;;
22705;SDS011;11520;51.198;4.468;2022-12-07T14:35:23;5.00;;;1.10;;
22705;SDS011;11520;51.198;4.468;2022-12-07T14:37:52;3.70;;;0.90;;
22705;SDS011;11520;51.198;4.468;2022-12-07T14:40:29;4.97;;;0.82;;
22705;SDS011;11520;51.198;4.468;2022-12-07T14:43:05;2.15;;;0.70;;
22705;SDS011;11520;51.198;4.468;2022-12-07T14:45:38;3.88;;;1.40;;
22705;SDS011;11520;51.198;4.468;2022-12-07T14:48:05;1.42;;;0.75;;
22705;SDS011;11520;51.198;4.468;2022-12-07T14:50:35;4.53;;;1.20;;
22705;SDS011;11520;51.198;4.468;2022-12-07T14:53:11;4.88;;;1.20;;
22705;SDS011;11520;51.198;4.468;2022-12-07T14:55:39;2.58;;;1.63;;
22705;SDS011;11520;51.198;4.468;2022-12-07T14:58:05;5.22;;;1.15;;
22705;SDS011;11520;51.198;4.468;2022-12-07T15:00:31;2.03;;;1.05;;
22705;SDS011;11520;51.198;4.468;2022-12-07T15:03:00;3.90;;;1.15;;
22705;SDS011;11520;51.198;4.468;2022-12-07T15:05:25;2.17;;;0.95;;
22705;SDS011;11520;51.198;4.468;2022-12-07T15:07:51;2.63;;;1.40;;
22705;SDS011;11520;51.198;4.468;2022-12-07T15:10:23;4.10;;;1.45;;
22705;SDS011;11520;51.198;4.468;2022-12-07T15:12:56;2.00;;;0.90;;
22705;SDS011;11520;51.198;4.468;2022-12-07T15:15:49;3.15;;;1.67;;
22705;SDS011;11520;51.198;4.468;2022-12-07T15:18:17;3.53;;;1.30;;
22705;SDS011;11520;51.198;4.468;2022-12-07T15:20:43;6.07;;;1.60;;
22705;SDS011;11520;51.198;4.468;2022-12-07T15:23:10;3.25;;;1.40;;
22705;SDS011;11520;51.198;4.468;2022-12-07T15:25:36;3.50;;;1.60;;
22705;SDS011;11520;51.198;4.468;2022-12-07T15:28:07;4.28;;;1.40;;
22705;SDS011;11520;51.198;4.468;2022-12-07T15:30:40;6.03;;;1.40;;
22705;SDS011;11520;51.198;4.468;2022-12-07T15:33:11;2.72;;;1.70;;
22705;SDS011;11520;51.198;4.468;2022-12-07T15:35:43;6.50;;;1.60;;
22705;SDS011;11520;51.198;4.468;2022-12-07T15:38:09;5.87;;;1.50;;
22705;SDS011;11520;51.198;4.468;2022-12-07T15:40:38;6.70;;;1.88;;
22705;SDS011;11520;51.198;4.468;2022-12-07T15:43:04;4.57;;;1.90;;
22705;SDS011;11520;51.198;4.468;2022-12-07T15:45:29;10.10;;;2.42;;
22705;SDS011;11520;51.198;4.468;2022-12-07T15:47:55;7.35;;;2.70;;
22705;SDS011;11520;51.198;4.468;2022-12-07T15:50:22;5.60;;;1.90;;
22705;SDS011;11520;51.198;4.468;2022-12-07T15:52:48;8.13;;;2.63;;
22705;SDS011;11520;51.198;4.468;2022-12-07T15:55:14;4.78;;;2.17;;
22705;SDS011;11520;51.198;4.468;2022-12-07T15:57:42;6.80;;;2.42;;
22705;SDS011;11520;51.198;4.468;2022-12-07T16:00:08;4.43;;;2.17;;
22705;SDS011;11520;51.198;4.468;2022-12-07T16:02:37;3.00;;;1.98;;
22705;SDS011;11520;51.198;4.468;2022-12-07T16:05:06;6.38;;;2.25;;
22705;SDS011;11520;51.198;4.468;2022-12-07T16:07:33;7.57;;;2.38;;
22705;SDS011;11520;51.198;4.468;2022-12-07T16:12:30;5.57;;;2.20;;
22705;SDS011;11520;51.198;4.468;2022-12-07T16:14:56;8.10;;;2.90;;
22705;SDS011;11520;51.198;4.468;2022-12-07T16:17:23;9.68;;;3.15;;
22705;SDS011;11520;51.198;4.468;2022-12-07T16:19:48;5.97;;;2.58;;
22705;SDS011;11520;51.198;4.468;2022-12-07T16:22:15;5.28;;;2.67;;
22705;SDS011;11520;51.198;4.468;2022-12-07T16:24:40;5.03;;;2.33;;
22705;SDS011;11520;51.198;4.468;2022-12-07T16:27:06;6.65;;;2.25;;
22705;SDS011;11520;51.198;4.468;2022-12-07T16:29:32;4.43;;;2.20;;
22705;SDS011;11520;51.198;4.468;2022-12-07T16:31:58;11.07;;;2.50;;
22705;SDS011;11520;51.198;4.468;2022-12-07T16:34:23;6.05;;;2.22;;
22705;SDS011;11520;51.198;4.468;2022-12-07T16:36:50;3.83;;;2.05;;
22705;SDS011;11520;51.198;4.468;2022-12-07T16:39:21;5.45;;;2.05;;
22705;SDS011;11520;51.198;4.468;2022-12-07T16:41:48;7.00;;;2.00;;
22705;SDS011;11520;51.198;4.468;2022-12-07T16:44:14;7.57;;;2.28;;
22705;SDS011;11520;51.198;4.468;2022-12-07T16:46:45;6.20;;;2.38;;
22705;SDS011;11520;51.198;4.468;2022-12-07T16:49:12;5.57;;;2.33;;
22705;SDS011;11520;51.198;4.468;2022-12-07T16:51:38;7.80;;;2.22;;
22705;SDS011;11520;51.198;4.468;2022-12-07T16:54:23;3.60;;;2.17;;
22705;SDS011;11520;51.198;4.468;2022-12-07T16:59:24;4.72;;;2.15;;
22705;SDS011;11520;51.198;4.468;2022-12-07T17:01:50;6.15;;;2.75;;
22705;SDS011;11520;51.198;4.468;2022-12-07T17:04:16;6.10;;;2.88;;
22705;SDS011;11520;51.198;4.468;2022-12-07T17:09:11;5.28;;;2.42;;
22705;SDS011;11520;51.198;4.468;2022-12-07T17:11:37;7.72;;;2.33;;
22705;SDS011;11520;51.198;4.468;2022-12-07T17:14:03;4.95;;;2.20;;
22705;SDS011;11520;51.198;4.468;2022-12-07T17:16:49;3.38;;;1.85;;
22705;SDS011;11520;51.198;4.468;2022-12-07T17:19:15;3.65;;;1.73;;
22705;SDS011;11520;51.198;4.468;2022-12-07T17:21:41;4.28;;;2.08;;
22705;SDS011;11520;51.198;4.468;2022-12-07T17:26:39;4.45;;;1.75;;
22705;SDS011;11520;51.198;4.468;2022-12-07T17:29:06;3.17;;;1.95;;
22705;SDS011;11520;51.198;4.468;2022-12-07T17:31:34;6.28;;;3.15;;
22705;SDS011;11520;51.198;4.468;2022-12-07T17:33:59;9.10;;;2.13;;
22705;SDS011;11520;51.198;4.468;2022-12-07T17:36:29;6.18;;;2.33;;
22705;SDS011;11520;51.198;4.468;2022-12-07T17:38:56;6.88;;;2.47;;
22705;SDS011;11520;51.198;4.468;2022-12-07T17:41:26;9.88;;;3.08;;
22705;SDS011;11520;51.198;4.468;2022-12-07T17:44:17;10.73;;;5.07;;
22705;SDS011;11520;51.198;4.468;2022-12-07T17:46:48;10.20;;;4.80;;